createdAt,value
2022-11-08T00:00:06.828Z,8.64
2022-11-08T00:02:34.985Z,8.74
2022-11-08T00:05:22.323Z,8.79
2022-11-08T00:08:07.774Z,9.13
2022-11-08T00:10:53.213Z,8.68
2022-11-08T00:13:38.488Z,8.66
2022-11-08T00:16:06.791Z,8.67
2022-11-08T00:18:34.850Z,8.59
2022-11-08T00:21:05.041Z,8.70
2022-11-08T00:23:32.810Z,8.97
2022-11-08T00:26:00.628Z,8.93
2022-11-08T00:28:28.381Z,8.68
2022-11-08T00:30:56.165Z,8.86
2022-11-08T00:33:23.996Z,8.41
2022-11-08T00:35:51.797Z,8.45
2022-11-08T00:38:21.080Z,8.41
2022-11-08T00:40:48.966Z,8.46
2022-11-08T00:43:16.948Z,8.57
2022-11-08T00:45:44.942Z,8.07
2022-11-08T00:48:12.931Z,8.44
2022-11-08T00:50:40.884Z,8.25
2022-11-08T00:53:09.082Z,8.49
2022-11-08T00:55:38.215Z,8.07
2022-11-08T00:58:05.986Z,7.88
2022-11-08T01:00:33.978Z,8.10
2022-11-08T01:03:19.926Z,8.15
2022-11-08T01:05:48.541Z,8.19
2022-11-08T01:08:18.064Z,7.88
2022-11-08T01:10:50.141Z,8.11
2022-11-08T01:13:19.261Z,8.28
2022-11-08T01:15:47.729Z,8.22
2022-11-08T01:18:17.958Z,8.18
2022-11-08T01:20:47.049Z,8.12
2022-11-08T01:23:15.906Z,8.08
2022-11-08T01:25:45.498Z,8.14
2022-11-08T01:28:14.899Z,8.09
2022-11-08T01:30:45.100Z,8.17
2022-11-08T01:33:13.647Z,8.02
2022-11-08T01:35:44.363Z,7.92
2022-11-08T01:38:12.377Z,7.85
2022-11-08T01:40:44.337Z,7.96
2022-11-08T01:43:36.888Z,7.86
2022-11-08T01:46:37.356Z,7.76
2022-11-08T01:49:27.699Z,7.49
2022-11-08T01:52:01.874Z,7.50
2022-11-08T01:54:35.458Z,7.32
2022-11-08T01:57:06.279Z,7.10
2022-11-08T01:59:39.091Z,7.38
2022-11-08T02:02:08.689Z,7.41
2022-11-08T02:04:37.581Z,7.44
2022-11-08T02:07:06.632Z,7.38
2022-11-08T02:09:37.099Z,7.42
2022-11-08T02:12:06.585Z,7.69
2022-11-08T02:14:37.469Z,7.61
2022-11-08T02:17:05.710Z,7.81
2022-11-08T02:19:40.767Z,7.52
2022-11-08T02:22:17.616Z,7.52
2022-11-08T02:24:47.091Z,7.61
2022-11-08T02:27:15.790Z,7.44
2022-11-08T02:29:43.657Z,7.57
2022-11-08T02:32:12.590Z,7.62
2022-11-08T02:34:44.957Z,7.71
2022-11-08T02:37:15.420Z,7.49
2022-11-08T02:39:44.275Z,7.67
2022-11-08T02:42:18.499Z,7.33
2022-11-08T02:44:46.641Z,7.33
2022-11-08T02:47:14.749Z,7.27
2022-11-08T02:49:42.834Z,7.19
2022-11-08T02:52:11.128Z,7.27
2022-11-08T02:54:39.083Z,7.30
2022-11-08T02:57:06.853Z,7.34
2022-11-08T02:59:35.988Z,7.23
2022-11-08T03:02:03.865Z,7.06
2022-11-08T03:04:31.827Z,7.02
2022-11-08T03:06:59.643Z,7.10
2022-11-08T03:09:28.053Z,6.94
2022-11-08T03:11:55.829Z,7.08
2022-11-08T03:14:24.338Z,7.01
2022-11-08T03:16:53.580Z,7.01
2022-11-08T03:19:21.859Z,6.80
2022-11-08T03:21:50.282Z,7.15
2022-11-08T03:24:18.093Z,6.93
2022-11-08T03:26:46.178Z,7.14
2022-11-08T03:29:13.999Z,7.11
2022-11-08T03:31:41.894Z,7.21
2022-11-08T03:34:11.864Z,7.18
2022-11-08T03:36:39.759Z,7.19
2022-11-08T03:39:07.584Z,7.32
2022-11-08T03:41:35.460Z,7.33
2022-11-08T03:44:03.297Z,7.36
2022-11-08T03:46:31.158Z,7.11
2022-11-08T03:48:58.992Z,7.11
2022-11-08T03:51:28.507Z,6.76
2022-11-08T03:53:56.541Z,6.72
2022-11-08T03:56:24.398Z,6.67
2022-11-08T03:58:52.213Z,6.67
2022-11-08T04:01:20.121Z,6.58
2022-11-08T04:03:47.938Z,6.46
2022-11-08T04:06:15.906Z,6.21
2022-11-08T04:08:45.139Z,6.43
2022-11-08T04:11:30.309Z,6.32
2022-11-08T04:14:16.511Z,6.24
2022-11-08T04:16:44.359Z,6.01
2022-11-08T04:19:29.598Z,5.97
2022-11-08T04:21:57.851Z,5.71
2022-11-08T04:24:27.026Z,5.59
2022-11-08T04:26:54.909Z,5.46
2022-11-08T04:29:22.742Z,5.32
2022-11-08T04:31:50.584Z,5.38
2022-11-08T04:34:18.391Z,5.61
2022-11-08T04:36:46.316Z,5.70
2022-11-08T04:39:14.160Z,5.66
2022-11-08T04:41:43.393Z,5.65
2022-11-08T04:44:12.451Z,5.57
2022-11-08T04:46:40.283Z,5.37
2022-11-08T04:49:09.256Z,5.40
2022-11-08T04:51:37.142Z,5.59
2022-11-08T04:54:07.602Z,5.69
2022-11-08T04:56:35.232Z,5.68
2022-11-08T04:59:08.286Z,5.29
2022-11-08T05:01:38.766Z,5.49
2022-11-08T05:04:06.799Z,5.33
2022-11-08T05:06:34.720Z,5.17
2022-11-08T05:09:02.526Z,4.92
2022-11-08T05:11:31.324Z,5.03
2022-11-08T05:13:59.333Z,4.85
2022-11-08T05:16:30.126Z,5.04
2022-11-08T05:18:58.249Z,5.17
2022-11-08T05:21:44.021Z,5.01
2022-11-08T05:24:15.525Z,4.97
2022-11-08T05:26:45.902Z,5.22
2022-11-08T05:29:16.109Z,5.20
2022-11-08T05:31:45.602Z,5.24
2022-11-08T05:34:13.432Z,5.24
2022-11-08T05:36:41.205Z,5.22
2022-11-08T05:39:09.020Z,5.40
2022-11-08T05:41:36.873Z,5.36
2022-11-08T05:44:04.700Z,5.15
2022-11-08T05:46:32.513Z,5.27
2022-11-08T05:49:01.710Z,5.23
2022-11-08T05:51:29.561Z,5.17
2022-11-08T05:53:57.298Z,5.00
2022-11-08T05:56:25.172Z,4.98
2022-11-08T05:58:53.036Z,4.88
2022-11-08T06:01:21.444Z,4.95
2022-11-08T06:03:50.764Z,5.01
2022-11-08T06:06:21.406Z,4.94
2022-11-08T06:08:51.504Z,4.87
2022-11-08T06:11:22.730Z,4.70
2022-11-08T06:13:50.922Z,4.83
2022-11-08T06:16:20.164Z,4.91
2022-11-08T06:18:48.490Z,5.16
2022-11-08T06:21:18.089Z,5.25
2022-11-08T06:23:49.725Z,5.35
2022-11-08T06:26:18.018Z,5.54
2022-11-08T06:28:45.843Z,5.65
2022-11-08T06:31:13.687Z,5.68
2022-11-08T06:33:41.508Z,5.73
2022-11-08T06:36:09.965Z,5.76
2022-11-08T06:38:37.729Z,5.70
2022-11-08T06:41:07.063Z,5.72
2022-11-08T06:43:35.024Z,5.99
2022-11-08T06:46:03.397Z,5.78
2022-11-08T06:48:35.829Z,5.70
2022-11-08T06:51:05.283Z,5.73
2022-11-08T06:53:33.623Z,5.99
2022-11-08T06:56:01.660Z,6.21
2022-11-08T06:58:31.774Z,6.19
2022-11-08T07:01:03.396Z,6.30
2022-11-08T07:03:31.927Z,6.27
2022-11-08T07:06:02.706Z,6.07
2022-11-08T07:08:30.633Z,6.36
2022-11-08T07:10:58.647Z,6.71
2022-11-08T07:13:26.592Z,6.79
2022-11-08T07:15:58.617Z,6.98
2022-11-08T07:18:27.504Z,6.97
2022-11-08T07:20:59.476Z,7.25
2022-11-08T07:23:27.378Z,7.19
2022-11-08T07:25:55.321Z,7.38
2022-11-08T07:28:23.164Z,7.64
2022-11-08T07:30:51.026Z,7.72
2022-11-08T07:33:20.702Z,7.79
2022-11-08T07:35:48.762Z,7.95
2022-11-08T07:38:16.570Z,8.26
2022-11-08T07:40:44.866Z,8.42
2022-11-08T07:43:13.298Z,8.61
2022-11-08T07:45:41.813Z,8.36
2022-11-08T07:48:13.264Z,8.01
2022-11-08T07:50:43.434Z,8.14
2022-11-08T07:53:11.922Z,8.27
2022-11-08T07:55:40.394Z,8.44
2022-11-08T07:58:09.294Z,8.83
2022-11-08T08:00:39.379Z,9.21
2022-11-08T08:03:09.210Z,9.45
2022-11-08T08:05:38.808Z,9.72
2022-11-08T08:08:08.720Z,9.63
2022-11-08T08:10:37.341Z,9.85
2022-11-08T08:13:06.171Z,10.01
2022-11-08T08:15:34.725Z,10.41
2022-11-08T08:18:03.061Z,10.58
2022-11-08T08:20:31.890Z,10.60
2022-11-08T08:23:00.303Z,10.74
2022-11-08T08:25:31.490Z,10.84
2022-11-08T08:28:01.814Z,10.99
2022-11-08T08:30:31.859Z,11.01
2022-11-08T08:33:26.809Z,10.93
2022-11-08T08:35:53.474Z,10.84
2022-11-08T08:38:21.883Z,10.86
2022-11-08T08:40:51.523Z,11.02
2022-11-08T08:43:19.846Z,10.89
2022-11-08T08:45:48.801Z,10.85
2022-11-08T08:48:16.806Z,10.93
2022-11-08T08:50:44.586Z,10.82
2022-11-08T08:53:13.035Z,11.00
2022-11-08T08:55:41.754Z,11.08
2022-11-08T08:58:11.900Z,11.27
2022-11-08T09:03:27.672Z,11.65
2022-11-08T09:05:57.485Z,11.78
2022-11-08T09:08:25.771Z,11.88
2022-11-08T09:10:55.531Z,12.07
2022-11-08T09:13:26.145Z,11.96
2022-11-08T09:15:54.457Z,11.87
2022-11-08T09:18:22.338Z,11.98
2022-11-08T09:20:50.208Z,12.05
2022-11-08T09:23:18.859Z,12.07
2022-11-08T09:25:47.067Z,12.26
2022-11-08T09:28:14.859Z,12.12
2022-11-08T09:30:44.000Z,12.26
2022-11-08T09:33:11.893Z,12.34
2022-11-08T09:35:39.729Z,12.39
2022-11-08T09:38:07.852Z,12.82
2022-11-08T09:40:40.709Z,12.77
2022-11-08T09:43:26.909Z,12.73
2022-11-08T09:45:57.456Z,12.59
2022-11-08T09:48:29.559Z,13.06
2022-11-08T09:51:00.161Z,13.18
2022-11-08T09:53:35.824Z,13.23
2022-11-08T09:56:08.957Z,13.17
2022-11-08T09:58:41.120Z,13.24
2022-11-08T10:01:12.013Z,13.20
2022-11-08T10:03:42.703Z,13.51
2022-11-08T10:06:27.315Z,13.74
2022-11-08T10:09:03.926Z,14.12
2022-11-08T10:11:45.721Z,14.49
2022-11-08T10:14:31.554Z,15.07
2022-11-08T10:17:12.283Z,15.17
2022-11-08T10:19:52.101Z,15.49
2022-11-08T10:22:29.017Z,15.42
2022-11-08T10:25:01.823Z,15.48
2022-11-08T10:27:34.773Z,15.73
2022-11-08T10:30:06.108Z,15.63
2022-11-08T10:32:36.211Z,16.20
2022-11-08T10:35:10.511Z,16.51
2022-11-08T10:37:39.841Z,16.50
2022-11-08T10:40:20.215Z,16.74
2022-11-08T10:42:52.741Z,16.48
2022-11-08T10:45:20.548Z,16.51
2022-11-08T10:47:50.111Z,16.62
2022-11-08T10:50:20.603Z,16.70
2022-11-08T10:52:54.456Z,16.51
2022-11-08T10:55:28.086Z,16.14
2022-11-08T10:57:55.879Z,16.38
2022-11-08T11:00:30.659Z,16.20
2022-11-08T11:03:01.582Z,16.49
2022-11-08T11:05:35.504Z,16.30
2022-11-08T11:08:14.594Z,16.19
2022-11-08T11:10:43.903Z,16.10
2022-11-08T11:13:13.765Z,16.05
2022-11-08T11:15:47.800Z,16.41
2022-11-08T11:18:32.850Z,16.17
2022-11-08T11:21:12.291Z,16.37
2022-11-08T11:23:43.874Z,16.31
2022-11-08T11:26:21.384Z,16.34
2022-11-08T11:29:17.714Z,16.28
2022-11-08T11:31:47.427Z,15.92
2022-11-08T11:34:42.241Z,16.11
2022-11-08T11:37:20.404Z,16.65
2022-11-08T11:39:56.050Z,16.81
2022-11-08T11:42:45.288Z,17.09
2022-11-08T11:45:18.996Z,16.84
2022-11-08T11:47:50.675Z,17.01
2022-11-08T11:50:31.987Z,17.28
2022-11-08T11:53:02.163Z,16.95
2022-11-08T11:55:45.657Z,16.71
2022-11-08T11:58:32.713Z,16.84
2022-11-08T12:01:13.131Z,17.33
2022-11-08T12:03:57.208Z,17.31
2022-11-08T12:06:38.638Z,18.14
2022-11-08T12:09:24.074Z,18.35
2022-11-08T12:12:04.729Z,17.85
2022-11-08T12:14:42.441Z,17.77
2022-11-08T12:17:34.665Z,17.77
2022-11-08T12:20:26.595Z,17.67
2022-11-08T12:23:10.180Z,17.84
2022-11-08T12:25:44.816Z,18.38
2022-11-08T12:28:33.382Z,18.58
2022-11-08T12:31:15.210Z,18.40
2022-11-08T12:33:57.809Z,17.65
2022-11-08T12:36:36.760Z,18.19
2022-11-08T12:39:23.180Z,18.03
2022-11-08T12:42:03.968Z,17.81
2022-11-08T12:44:53.141Z,18.05
2022-11-08T12:47:32.986Z,18.05
2022-11-08T12:50:11.561Z,17.51
2022-11-08T12:52:55.973Z,18.04
2022-11-08T12:55:28.333Z,18.54
2022-11-08T12:57:59.624Z,18.38
2022-11-08T13:00:29.306Z,18.18
2022-11-08T13:03:05.789Z,18.31
2022-11-08T13:05:38.636Z,18.75
2022-11-08T13:08:14.106Z,18.53
2022-11-08T13:10:51.676Z,18.07
2022-11-08T13:13:33.981Z,18.18
2022-11-08T13:16:10.707Z,18.21
2022-11-08T13:18:45.973Z,18.65
2022-11-08T13:21:41.078Z,18.17
2022-11-08T13:24:43.807Z,18.42
2022-11-08T13:27:33.926Z,18.67
2022-11-08T13:30:36.333Z,17.96
2022-11-08T13:33:15.092Z,18.06
2022-11-08T13:35:52.153Z,18.27
2022-11-08T13:38:31.949Z,17.88
2022-11-08T13:41:16.026Z,17.97
2022-11-08T13:43:45.896Z,17.93
2022-11-08T13:46:46.441Z,17.91
2022-11-08T13:49:19.041Z,17.89
2022-11-08T13:51:47.372Z,18.01
2022-11-08T13:54:52.815Z,17.33
2022-11-08T13:57:42.282Z,17.02
2022-11-08T14:00:35.335Z,16.99
2022-11-08T14:03:03.135Z,16.97
2022-11-08T14:05:33.253Z,16.73
2022-11-08T14:08:20.942Z,16.58
2022-11-08T14:11:09.258Z,16.72
2022-11-08T14:13:58.078Z,16.47
2022-11-08T14:16:33.909Z,16.24
2022-11-08T14:19:19.960Z,16.19
2022-11-08T14:21:50.836Z,16.21
2022-11-08T14:24:22.663Z,16.01
2022-11-08T14:26:50.449Z,15.97
2022-11-08T14:29:19.486Z,16.02
2022-11-08T14:31:49.031Z,15.93
2022-11-08T14:34:31.974Z,15.68
2022-11-08T14:37:01.596Z,15.63
2022-11-08T14:39:34.578Z,15.55
2022-11-08T14:42:04.451Z,15.52
2022-11-08T14:44:32.296Z,15.71
2022-11-08T14:47:01.564Z,15.40
2022-11-08T14:49:34.809Z,15.29
2022-11-08T14:52:16.140Z,15.05
2022-11-08T14:54:46.878Z,15.07
2022-11-08T14:57:32.185Z,14.84
2022-11-08T15:00:02.412Z,14.83
2022-11-08T15:02:32.277Z,14.86
2022-11-08T15:05:00.089Z,14.70
2022-11-08T15:07:28.120Z,14.70
2022-11-08T15:09:56.636Z,14.73
2022-11-08T15:12:26.303Z,14.70
2022-11-08T15:14:58.944Z,14.60
2022-11-08T15:17:33.934Z,14.61
2022-11-08T15:20:20.768Z,14.65
2022-11-08T15:22:52.865Z,14.57
2022-11-08T15:25:29.093Z,14.53
2022-11-08T15:27:58.970Z,14.37
2022-11-08T15:30:37.867Z,14.43
2022-11-08T15:33:07.354Z,14.39
2022-11-08T15:35:37.798Z,14.41
2022-11-08T15:38:06.488Z,14.24
2022-11-08T15:40:36.829Z,14.23
2022-11-08T15:43:04.941Z,14.09
2022-11-08T15:49:56.566Z,13.93
2022-11-08T15:52:24.519Z,13.77
2022-11-08T15:54:52.779Z,13.72
2022-11-08T15:57:20.761Z,13.78
2022-11-08T15:59:48.877Z,13.69
2022-11-08T16:02:22.944Z,13.54
2022-11-08T16:04:50.757Z,13.49
2022-11-08T16:07:20.070Z,13.44
2022-11-08T16:09:48.101Z,13.40
2022-11-08T16:12:17.688Z,13.24
2022-11-08T16:14:45.656Z,13.19
2022-11-08T16:17:14.968Z,13.18
2022-11-08T16:19:42.821Z,13.09
2022-11-08T16:22:10.712Z,13.05
2022-11-08T16:24:40.041Z,12.92
2022-11-08T16:27:07.981Z,12.96
2022-11-08T16:29:36.433Z,12.97
2022-11-08T16:32:04.295Z,13.01
2022-11-08T16:34:32.088Z,12.87
2022-11-08T16:37:00.153Z,12.81
2022-11-08T16:39:28.424Z,12.70
2022-11-08T16:41:57.601Z,12.86
2022-11-08T16:44:25.448Z,12.64
2022-11-08T16:46:54.143Z,12.71
2022-11-08T16:49:26.740Z,12.69
2022-11-08T16:51:54.596Z,12.55
2022-11-08T16:54:24.121Z,12.71
2022-11-08T16:57:03.457Z,12.56
2022-11-08T16:59:41.450Z,12.57
2022-11-08T17:02:20.538Z,12.48
2022-11-08T17:04:48.401Z,12.36
2022-11-08T17:07:16.227Z,12.32
2022-11-08T17:09:44.087Z,12.36
2022-11-08T17:12:12.129Z,12.31
2022-11-08T17:14:41.288Z,12.29
2022-11-08T17:17:10.382Z,12.20
2022-11-08T17:19:38.215Z,12.21
2022-11-08T17:22:06.220Z,12.25
2022-11-08T17:24:35.341Z,12.20
2022-11-08T17:27:03.163Z,12.19
2022-11-08T17:29:31.030Z,12.20
2022-11-08T17:32:00.497Z,12.20
2022-11-08T17:34:29.538Z,12.16
2022-11-08T17:36:57.344Z,12.09
2022-11-08T17:39:25.222Z,12.16
2022-11-08T17:41:53.224Z,12.04
2022-11-08T17:44:21.060Z,12.06
2022-11-08T17:46:50.160Z,12.08
2022-11-08T17:49:19.369Z,12.03
2022-11-08T17:51:47.315Z,12.05
2022-11-08T17:54:15.142Z,12.06
2022-11-08T17:56:43.166Z,11.99
2022-11-08T17:59:11.207Z,11.97
2022-11-08T18:01:39.270Z,12.08
2022-11-08T18:04:07.231Z,11.94
2022-11-08T18:06:38.750Z,11.99
2022-11-08T18:09:06.722Z,11.93
2022-11-08T18:11:34.623Z,11.88
2022-11-08T18:14:03.624Z,11.85
2022-11-08T18:16:31.937Z,11.91
2022-11-08T18:18:59.785Z,11.92
2022-11-08T18:21:27.737Z,11.70
2022-11-08T18:23:59.765Z,11.72
2022-11-08T18:26:28.250Z,11.79
2022-11-08T18:28:56.253Z,11.73
2022-11-08T18:31:24.339Z,11.67
2022-11-08T18:33:52.538Z,11.60
2022-11-08T18:36:22.817Z,11.55
2022-11-08T18:38:52.133Z,11.50
2022-11-08T18:41:25.154Z,11.47
2022-11-08T18:43:53.710Z,11.56
2022-11-08T18:46:23.431Z,11.47
2022-11-08T18:48:51.880Z,11.56
2022-11-08T18:51:21.575Z,11.35
2022-11-08T18:53:52.567Z,11.61
2022-11-08T18:56:22.590Z,11.37
2022-11-08T18:58:51.097Z,11.53
2022-11-08T19:01:19.319Z,11.46
2022-11-08T19:03:47.340Z,11.37
2022-11-08T19:06:15.219Z,11.39
2022-11-08T19:08:43.007Z,11.49
2022-11-08T19:11:13.029Z,11.33
2022-11-08T19:13:42.789Z,11.53
2022-11-08T19:16:14.395Z,11.37
2022-11-08T19:18:43.366Z,11.36
2022-11-08T19:21:14.458Z,11.41
2022-11-08T19:23:42.704Z,11.41
2022-11-08T19:26:14.039Z,11.46
2022-11-08T19:28:45.601Z,11.48
2022-11-08T19:31:14.514Z,11.37
2022-11-08T19:33:42.510Z,11.30
2022-11-08T19:36:13.839Z,11.41
2022-11-08T19:38:42.468Z,11.38
2022-11-08T19:41:12.592Z,11.31
2022-11-08T19:43:43.895Z,11.42
2022-11-08T19:46:13.863Z,11.24
2022-11-08T19:48:43.327Z,11.23
2022-11-08T19:51:14.684Z,11.20
2022-11-08T19:53:42.859Z,11.21
2022-11-08T19:56:12.387Z,11.02
2022-11-08T19:58:40.652Z,11.06
2022-11-08T20:01:10.894Z,10.91
2022-11-08T20:03:39.311Z,10.96
2022-11-08T20:06:08.425Z,11.02
2022-11-08T20:08:36.519Z,10.96
2022-11-08T20:11:12.344Z,11.00
2022-11-08T20:13:40.263Z,11.09
2022-11-08T20:16:14.808Z,11.05
2022-11-08T20:18:43.094Z,11.08
2022-11-08T20:21:12.913Z,11.08
2022-11-08T20:23:42.511Z,11.00
2022-11-08T20:26:16.382Z,10.94
2022-11-08T20:28:55.157Z,11.13
2022-11-08T20:31:25.913Z,11.07
2022-11-08T20:33:54.800Z,11.07
2022-11-08T20:36:23.999Z,10.91
2022-11-08T20:38:55.433Z,10.90
2022-11-08T20:41:23.320Z,10.73
2022-11-08T20:43:51.326Z,10.68
2022-11-08T20:46:21.686Z,10.62
2022-11-08T20:48:51.524Z,10.73
2022-11-08T20:51:21.224Z,10.68
2022-11-08T20:53:49.490Z,10.75
2022-11-08T20:56:19.223Z,10.81
2022-11-08T20:58:48.219Z,10.77
2022-11-08T21:01:18.272Z,10.83
2022-11-08T21:03:47.422Z,10.95
2022-11-08T21:06:22.116Z,10.65
2022-11-08T21:08:59.001Z,10.66
2022-11-08T21:11:30.206Z,10.69
2022-11-08T21:13:58.210Z,10.70
2022-11-08T21:16:31.565Z,10.77
2022-11-08T21:19:01.154Z,10.79
2022-11-08T21:21:30.937Z,10.76
2022-11-08T21:23:58.796Z,10.83
2022-11-08T21:26:26.715Z,10.94
2022-11-08T21:28:55.262Z,10.90
2022-11-08T21:31:23.085Z,11.13
2022-11-08T21:33:51.036Z,11.22
2022-11-08T21:36:20.506Z,11.18
2022-11-08T21:38:49.960Z,11.22
2022-11-08T21:41:17.902Z,11.08
2022-11-08T21:43:45.913Z,11.38
2022-11-08T21:46:15.874Z,11.33
2022-11-08T21:48:43.861Z,11.44
2022-11-08T21:51:11.749Z,11.37
2022-11-08T21:53:49.318Z,11.34
2022-11-08T21:56:22.390Z,11.51
2022-11-08T21:58:50.208Z,11.27
2022-11-08T22:01:18.350Z,11.06
2022-11-08T22:03:46.751Z,11.46
2022-11-08T22:06:15.031Z,11.47
2022-11-08T22:08:42.834Z,11.46
2022-11-08T22:11:10.639Z,11.46
2022-11-08T22:13:39.852Z,11.31
2022-11-08T22:16:08.108Z,11.27
2022-11-08T22:18:58.788Z,11.14
2022-11-08T22:21:39.623Z,11.06
2022-11-08T22:24:09.473Z,11.35
2022-11-08T22:26:37.459Z,11.33
2022-11-08T22:29:06.995Z,11.39
2022-11-08T22:31:34.971Z,11.21
2022-11-08T22:34:02.869Z,11.31
2022-11-08T22:36:30.741Z,11.32
2022-11-08T22:38:58.983Z,11.29
2022-11-08T22:41:26.853Z,11.23
2022-11-08T22:43:55.336Z,11.41
2022-11-08T22:46:24.788Z,11.06
2022-11-08T22:48:52.605Z,11.04
2022-11-08T22:51:20.421Z,10.80
2022-11-08T22:53:48.327Z,10.87
2022-11-08T22:56:16.122Z,10.71
2022-11-08T22:58:43.907Z,10.98
2022-11-08T23:01:13.301Z,11.11
2022-11-08T23:03:45.381Z,11.25
2022-11-08T23:06:13.885Z,11.30
2022-11-08T23:08:42.238Z,11.28
2022-11-08T23:11:27.925Z,11.48
2022-11-08T23:14:13.439Z,11.40
2022-11-08T23:16:43.883Z,11.08
2022-11-08T23:19:32.831Z,11.17
2022-11-08T23:22:18.501Z,10.97
2022-11-08T23:24:46.536Z,11.35
2022-11-08T23:27:35.006Z,11.29
2022-11-08T23:30:20.681Z,11.55
2022-11-08T23:32:49.944Z,11.32
2022-11-08T23:35:21.472Z,11.31
2022-11-08T23:37:49.668Z,11.54
2022-11-08T23:40:37.087Z,11.46
2022-11-08T23:43:24.374Z,11.15
2022-11-08T23:45:52.696Z,11.59
2022-11-08T23:48:20.858Z,11.40
2022-11-08T23:50:52.075Z,11.46
2022-11-08T23:53:20.537Z,11.39
2022-11-08T23:55:48.767Z,11.46
2022-11-08T23:58:16.637Z,11.56
